sensor_id;sensor_type;location;lat;lon;timestamp;temperature;humidity
33715;DHT22;20043;50.998;4.754;2023-07-13T00:01:42;18.50;99.90
33715;DHT22;20043;50.998;4.754;2023-07-13T00:04:08;18.50;99.90
33715;DHT22;20043;50.998;4.754;2023-07-13T00:06:34;18.50;99.90
33715;DHT22;20043;50.998;4.754;2023-07-13T00:09:00;18.40;99.90
33715;DHT22;20043;50.998;4.754;2023-07-13T00:11:27;18.30;99.90
33715;DHT22;20043;50.998;4.754;2023-07-13T00:13:53;18.20;99.90
33715;DHT22;20043;50.998;4.754;2023-07-13T00:16:18;18.00;99.90
33715;DHT22;20043;50.998;4.754;2023-07-13T00:18:45;18.00;99.90
33715;DHT22;20043;50.998;4.754;2023-07-13T00:21:11;18.00;99.90
33715;DHT22;20043;50.998;4.754;2023-07-13T00:23:39;18.10;99.90
33715;DHT22;20043;50.998;4.754;2023-07-13T00:26:08;18.10;99.90
33715;DHT22;20043;50.998;4.754;2023-07-13T00:28:34;18.00;99.90
33715;DHT22;20043;50.998;4.754;2023-07-13T00:31:01;18.10;99.90
33715;DHT22;20043;50.998;4.754;2023-07-13T00:33:29;18.00;99.90
33715;DHT22;20043;50.998;4.754;2023-07-13T00:35:55;18.00;99.90
33715;DHT22;20043;50.998;4.754;2023-07-13T00:38:22;18.00;99.90
33715;DHT22;20043;50.998;4.754;2023-07-13T00:40:48;18.00;99.90
33715;DHT22;20043;50.998;4.754;2023-07-13T00:43:20;18.00;99.90
33715;DHT22;20043;50.998;4.754;2023-07-13T00:48:14;17.90;99.90
33715;DHT22;20043;50.998;4.754;2023-07-13T00:50:41;17.90;99.90
33715;DHT22;20043;50.998;4.754;2023-07-13T00:53:07;18.00;99.90
33715;DHT22;20043;50.998;4.754;2023-07-13T00:55:34;18.00;99.90
33715;DHT22;20043;50.998;4.754;2023-07-13T00:58:00;18.00;99.90
33715;DHT22;20043;50.998;4.754;2023-07-13T01:00:29;18.00;99.90
33715;DHT22;20043;50.998;4.754;2023-07-13T01:02:55;18.00;99.90
33715;DHT22;20043;50.998;4.754;2023-07-13T01:05:22;18.10;99.90
33715;DHT22;20043;50.998;4.754;2023-07-13T01:07:50;18.10;99.90
33715;DHT22;20043;50.998;4.754;2023-07-13T01:10:17;18.20;99.90
33715;DHT22;20043;50.998;4.754;2023-07-13T01:12:46;18.30;99.90
33715;DHT22;20043;50.998;4.754;2023-07-13T01:17:59;18.30;99.90
33715;DHT22;20043;50.998;4.754;2023-07-13T01:20:24;18.30;99.90
33715;DHT22;20043;50.998;4.754;2023-07-13T01:22:50;18.20;99.90
33715;DHT22;20043;50.998;4.754;2023-07-13T01:25:16;18.10;99.90
33715;DHT22;20043;50.998;4.754;2023-07-13T01:27:42;18.00;99.90
33715;DHT22;20043;50.998;4.754;2023-07-13T01:30:07;17.90;99.90
33715;DHT22;20043;50.998;4.754;2023-07-13T01:32:33;17.90;99.90
33715;DHT22;20043;50.998;4.754;2023-07-13T01:34:59;17.80;99.90
33715;DHT22;20043;50.998;4.754;2023-07-13T01:37:26;17.90;99.90
33715;DHT22;20043;50.998;4.754;2023-07-13T01:39:52;17.80;99.90
33715;DHT22;20043;50.998;4.754;2023-07-13T01:42:17;17.90;99.90
33715;DHT22;20043;50.998;4.754;2023-07-13T01:44:43;17.80;99.90
33715;DHT22;20043;50.998;4.754;2023-07-13T01:47:09;17.90;99.90
33715;DHT22;20043;50.998;4.754;2023-07-13T01:49:35;17.90;99.90
33715;DHT22;20043;50.998;4.754;2023-07-13T01:52:00;17.90;99.90
33715;DHT22;20043;50.998;4.754;2023-07-13T01:54:26;18.00;99.90
33715;DHT22;20043;50.998;4.754;2023-07-13T01:56:51;17.90;99.90
33715;DHT22;20043;50.998;4.754;2023-07-13T01:59:17;18.00;99.90
33715;DHT22;20043;50.998;4.754;2023-07-13T02:01:42;18.10;99.90
33715;DHT22;20043;50.998;4.754;2023-07-13T02:04:14;18.00;99.90
33715;DHT22;20043;50.998;4.754;2023-07-13T02:06:40;17.90;99.90
33715;DHT22;20043;50.998;4.754;2023-07-13T02:09:06;17.80;99.90
33715;DHT22;20043;50.998;4.754;2023-07-13T02:11:33;17.70;99.90
33715;DHT22;20043;50.998;4.754;2023-07-13T02:14:02;17.60;99.90
33715;DHT22;20043;50.998;4.754;2023-07-13T02:16:31;17.60;99.90
33715;DHT22;20043;50.998;4.754;2023-07-13T02:18:57;17.60;99.90
33715;DHT22;20043;50.998;4.754;2023-07-13T02:21:23;17.40;99.90
33715;DHT22;20043;50.998;4.754;2023-07-13T02:23:49;17.40;99.90
33715;DHT22;20043;50.998;4.754;2023-07-13T02:26:15;17.30;99.90
33715;DHT22;20043;50.998;4.754;2023-07-13T02:28:40;17.30;99.90
33715;DHT22;20043;50.998;4.754;2023-07-13T02:31:12;17.30;99.90
33715;DHT22;20043;50.998;4.754;2023-07-13T02:33:39;17.40;99.90
33715;DHT22;20043;50.998;4.754;2023-07-13T02:36:05;17.40;99.90
33715;DHT22;20043;50.998;4.754;2023-07-13T02:38:32;17.40;99.90
33715;DHT22;20043;50.998;4.754;2023-07-13T02:40:59;17.40;99.90
33715;DHT22;20043;50.998;4.754;2023-07-13T02:43:25;17.30;99.90
33715;DHT22;20043;50.998;4.754;2023-07-13T02:45:51;17.20;99.90
33715;DHT22;20043;50.998;4.754;2023-07-13T02:48:16;17.20;99.90
33715;DHT22;20043;50.998;4.754;2023-07-13T02:50:43;17.20;99.90
33715;DHT22;20043;50.998;4.754;2023-07-13T02:53:09;17.20;99.90
33715;DHT22;20043;50.998;4.754;2023-07-13T02:55:34;17.10;99.90
33715;DHT22;20043;50.998;4.754;2023-07-13T02:58:00;17.20;99.90
33715;DHT22;20043;50.998;4.754;2023-07-13T03:00:27;17.20;99.90
33715;DHT22;20043;50.998;4.754;2023-07-13T03:02:53;17.20;99.90
33715;DHT22;20043;50.998;4.754;2023-07-13T03:05:28;17.30;99.90
33715;DHT22;20043;50.998;4.754;2023-07-13T03:07:54;17.30;99.90
33715;DHT22;20043;50.998;4.754;2023-07-13T03:10:20;17.30;99.90
33715;DHT22;20043;50.998;4.754;2023-07-13T03:12:45;17.30;99.90
33715;DHT22;20043;50.998;4.754;2023-07-13T03:15:11;17.40;99.90
33715;DHT22;20043;50.998;4.754;2023-07-13T03:17:36;17.30;99.90
33715;DHT22;20043;50.998;4.754;2023-07-13T03:20:02;17.40;99.90
33715;DHT22;20043;50.998;4.754;2023-07-13T03:22:28;17.30;99.90
33715;DHT22;20043;50.998;4.754;2023-07-13T03:24:55;17.30;99.90
33715;DHT22;20043;50.998;4.754;2023-07-13T03:27:20;17.40;99.90
33715;DHT22;20043;50.998;4.754;2023-07-13T03:29:46;17.40;99.90
33715;DHT22;20043;50.998;4.754;2023-07-13T03:32:12;17.40;99.90
33715;DHT22;20043;50.998;4.754;2023-07-13T03:34:37;17.50;99.90
33715;DHT22;20043;50.998;4.754;2023-07-13T03:37:11;17.50;99.90
33715;DHT22;20043;50.998;4.754;2023-07-13T03:39:50;17.50;99.90
33715;DHT22;20043;50.998;4.754;2023-07-13T03:42:17;17.40;99.90
33715;DHT22;20043;50.998;4.754;2023-07-13T03:44:44;17.30;99.90
33715;DHT22;20043;50.998;4.754;2023-07-13T03:47:16;17.20;99.90
33715;DHT22;20043;50.998;4.754;2023-07-13T03:49:41;17.20;99.90
33715;DHT22;20043;50.998;4.754;2023-07-13T03:52:07;17.20;99.90
33715;DHT22;20043;50.998;4.754;2023-07-13T03:54:32;17.20;99.90
33715;DHT22;20043;50.998;4.754;2023-07-13T03:56:58;17.20;99.90
33715;DHT22;20043;50.998;4.754;2023-07-13T03:59:23;17.20;99.90
33715;DHT22;20043;50.998;4.754;2023-07-13T04:01:49;17.20;99.90
33715;DHT22;20043;50.998;4.754;2023-07-13T04:04:15;17.20;99.90
33715;DHT22;20043;50.998;4.754;2023-07-13T04:06:41;17.20;99.90
33715;DHT22;20043;50.998;4.754;2023-07-13T04:09:06;17.20;99.90
33715;DHT22;20043;50.998;4.754;2023-07-13T04:11:33;17.20;99.90
33715;DHT22;20043;50.998;4.754;2023-07-13T04:13:59;17.20;99.90
33715;DHT22;20043;50.998;4.754;2023-07-13T04:16:25;17.20;99.90
33715;DHT22;20043;50.998;4.754;2023-07-13T04:18:51;17.20;99.90
33715;DHT22;20043;50.998;4.754;2023-07-13T04:21:20;17.20;99.90
33715;DHT22;20043;50.998;4.754;2023-07-13T04:23:46;17.20;99.90
33715;DHT22;20043;50.998;4.754;2023-07-13T04:26:12;17.20;99.90
33715;DHT22;20043;50.998;4.754;2023-07-13T04:28:37;17.10;99.90
33715;DHT22;20043;50.998;4.754;2023-07-13T04:31:03;17.10;99.90
33715;DHT22;20043;50.998;4.754;2023-07-13T04:33:29;17.00;99.90
33715;DHT22;20043;50.998;4.754;2023-07-13T04:35:55;17.10;99.90
33715;DHT22;20043;50.998;4.754;2023-07-13T04:38:29;17.10;99.90
33715;DHT22;20043;50.998;4.754;2023-07-13T04:40:56;17.20;99.90
33715;DHT22;20043;50.998;4.754;2023-07-13T04:43:23;17.20;99.90
33715;DHT22;20043;50.998;4.754;2023-07-13T04:45:49;17.10;99.90
33715;DHT22;20043;50.998;4.754;2023-07-13T04:48:15;17.10;99.90
33715;DHT22;20043;50.998;4.754;2023-07-13T04:50:41;17.20;99.90
33715;DHT22;20043;50.998;4.754;2023-07-13T04:53:09;17.20;99.90
33715;DHT22;20043;50.998;4.754;2023-07-13T04:55:36;17.30;99.90
33715;DHT22;20043;50.998;4.754;2023-07-13T04:58:02;17.30;99.90
33715;DHT22;20043;50.998;4.754;2023-07-13T05:00:29;17.30;99.90
33715;DHT22;20043;50.998;4.754;2023-07-13T05:02:56;17.30;99.90
33715;DHT22;20043;50.998;4.754;2023-07-13T05:05:23;17.30;99.90
33715;DHT22;20043;50.998;4.754;2023-07-13T05:07:48;17.30;99.90
33715;DHT22;20043;50.998;4.754;2023-07-13T05:10:14;17.20;99.90
33715;DHT22;20043;50.998;4.754;2023-07-13T05:12:40;17.30;99.90
33715;DHT22;20043;50.998;4.754;2023-07-13T05:15:06;17.40;99.90
33715;DHT22;20043;50.998;4.754;2023-07-13T05:17:32;17.50;99.90
33715;DHT22;20043;50.998;4.754;2023-07-13T05:19:57;17.50;99.90
33715;DHT22;20043;50.998;4.754;2023-07-13T05:22:23;17.50;99.90
33715;DHT22;20043;50.998;4.754;2023-07-13T05:24:48;17.50;99.90
33715;DHT22;20043;50.998;4.754;2023-07-13T05:27:14;17.50;99.90
33715;DHT22;20043;50.998;4.754;2023-07-13T05:29:40;17.50;99.90
33715;DHT22;20043;50.998;4.754;2023-07-13T05:32:06;17.60;99.90
33715;DHT22;20043;50.998;4.754;2023-07-13T05:34:32;17.70;99.90
33715;DHT22;20043;50.998;4.754;2023-07-13T05:36:58;17.70;99.90
33715;DHT22;20043;50.998;4.754;2023-07-13T05:39:23;17.80;99.90
33715;DHT22;20043;50.998;4.754;2023-07-13T05:41:49;17.80;99.90
33715;DHT22;20043;50.998;4.754;2023-07-13T05:44:15;17.80;99.90
33715;DHT22;20043;50.998;4.754;2023-07-13T05:46:41;17.80;99.90
33715;DHT22;20043;50.998;4.754;2023-07-13T05:49:06;17.90;99.90
33715;DHT22;20043;50.998;4.754;2023-07-13T05:51:32;17.90;99.90
33715;DHT22;20043;50.998;4.754;2023-07-13T05:53:58;18.00;99.90
33715;DHT22;20043;50.998;4.754;2023-07-13T05:56:23;18.10;99.90
33715;DHT22;20043;50.998;4.754;2023-07-13T05:58:50;18.00;99.90
33715;DHT22;20043;50.998;4.754;2023-07-13T06:01:16;18.00;99.90
33715;DHT22;20043;50.998;4.754;2023-07-13T06:03:42;18.00;99.90
33715;DHT22;20043;50.998;4.754;2023-07-13T06:06:09;18.10;99.90
33715;DHT22;20043;50.998;4.754;2023-07-13T06:08:35;18.10;99.90
33715;DHT22;20043;50.998;4.754;2023-07-13T06:11:03;18.20;99.90
33715;DHT22;20043;50.998;4.754;2023-07-13T06:13:29;18.20;99.90
33715;DHT22;20043;50.998;4.754;2023-07-13T06:15:55;18.30;99.90
33715;DHT22;20043;50.998;4.754;2023-07-13T06:18:20;18.30;99.90
33715;DHT22;20043;50.998;4.754;2023-07-13T06:20:46;18.30;99.90
33715;DHT22;20043;50.998;4.754;2023-07-13T06:23:11;18.40;99.90
33715;DHT22;20043;50.998;4.754;2023-07-13T06:25:37;18.40;99.90
33715;DHT22;20043;50.998;4.754;2023-07-13T06:28:03;18.40;99.90
33715;DHT22;20043;50.998;4.754;2023-07-13T06:30:28;18.40;99.90
33715;DHT22;20043;50.998;4.754;2023-07-13T06:32:54;18.30;99.90
33715;DHT22;20043;50.998;4.754;2023-07-13T06:35:19;18.30;99.90
33715;DHT22;20043;50.998;4.754;2023-07-13T06:37:46;18.40;99.90
33715;DHT22;20043;50.998;4.754;2023-07-13T06:40:12;18.40;99.90
33715;DHT22;20043;50.998;4.754;2023-07-13T06:42:38;18.40;99.90
33715;DHT22;20043;50.998;4.754;2023-07-13T06:45:04;18.40;99.90
33715;DHT22;20043;50.998;4.754;2023-07-13T06:47:30;18.50;99.90
33715;DHT22;20043;50.998;4.754;2023-07-13T06:49:56;18.40;99.90
33715;DHT22;20043;50.998;4.754;2023-07-13T06:52:21;18.30;99.90
33715;DHT22;20043;50.998;4.754;2023-07-13T06:54:47;18.40;99.90
33715;DHT22;20043;50.998;4.754;2023-07-13T06:57:12;18.50;99.90
33715;DHT22;20043;50.998;4.754;2023-07-13T06:59:38;18.60;99.90
33715;DHT22;20043;50.998;4.754;2023-07-13T07:02:04;18.70;99.90
33715;DHT22;20043;50.998;4.754;2023-07-13T07:04:30;18.80;99.90
33715;DHT22;20043;50.998;4.754;2023-07-13T07:06:55;18.80;99.90
33715;DHT22;20043;50.998;4.754;2023-07-13T07:09:21;18.90;99.90
33715;DHT22;20043;50.998;4.754;2023-07-13T07:11:47;19.00;99.90
33715;DHT22;20043;50.998;4.754;2023-07-13T07:14:12;19.00;99.90
33715;DHT22;20043;50.998;4.754;2023-07-13T07:16:38;19.10;99.90
33715;DHT22;20043;50.998;4.754;2023-07-13T07:19:03;19.00;99.90
33715;DHT22;20043;50.998;4.754;2023-07-13T07:21:29;19.10;99.90
33715;DHT22;20043;50.998;4.754;2023-07-13T07:23:54;19.30;99.90
33715;DHT22;20043;50.998;4.754;2023-07-13T07:26:20;19.50;99.90
33715;DHT22;20043;50.998;4.754;2023-07-13T07:28:46;19.50;99.90
33715;DHT22;20043;50.998;4.754;2023-07-13T07:31:11;19.50;99.90
33715;DHT22;20043;50.998;4.754;2023-07-13T07:33:37;19.50;99.90
33715;DHT22;20043;50.998;4.754;2023-07-13T07:36:03;19.50;99.90
33715;DHT22;20043;50.998;4.754;2023-07-13T07:38:29;19.50;99.90
33715;DHT22;20043;50.998;4.754;2023-07-13T07:40:54;19.50;99.90
33715;DHT22;20043;50.998;4.754;2023-07-13T07:43:20;19.50;99.90
33715;DHT22;20043;50.998;4.754;2023-07-13T07:45:45;19.50;99.90
33715;DHT22;20043;50.998;4.754;2023-07-13T07:48:11;19.50;99.90
33715;DHT22;20043;50.998;4.754;2023-07-13T07:50:37;19.70;99.90
33715;DHT22;20043;50.998;4.754;2023-07-13T07:53:04;19.90;99.90
33715;DHT22;20043;50.998;4.754;2023-07-13T07:55:33;20.10;99.90
33715;DHT22;20043;50.998;4.754;2023-07-13T07:58:00;20.10;99.90
33715;DHT22;20043;50.998;4.754;2023-07-13T08:00:26;20.20;99.90
33715;DHT22;20043;50.998;4.754;2023-07-13T08:02:52;20.40;99.90
33715;DHT22;20043;50.998;4.754;2023-07-13T08:05:18;20.50;99.90
33715;DHT22;20043;50.998;4.754;2023-07-13T08:07:43;20.50;99.90
33715;DHT22;20043;50.998;4.754;2023-07-13T08:10:09;20.60;99.90
33715;DHT22;20043;50.998;4.754;2023-07-13T08:12:39;20.90;99.90
33715;DHT22;20043;50.998;4.754;2023-07-13T08:15:06;21.00;99.90
33715;DHT22;20043;50.998;4.754;2023-07-13T08:17:34;21.00;99.90
33715;DHT22;20043;50.998;4.754;2023-07-13T08:19:59;20.90;99.90
33715;DHT22;20043;50.998;4.754;2023-07-13T08:22:25;20.80;99.90
33715;DHT22;20043;50.998;4.754;2023-07-13T08:24:50;20.90;99.90
33715;DHT22;20043;50.998;4.754;2023-07-13T08:27:22;21.10;99.90
33715;DHT22;20043;50.998;4.754;2023-07-13T08:29:48;21.20;99.90
33715;DHT22;20043;50.998;4.754;2023-07-13T08:32:14;21.30;99.90
33715;DHT22;20043;50.998;4.754;2023-07-13T08:34:40;21.40;99.90
33715;DHT22;20043;50.998;4.754;2023-07-13T08:37:06;21.50;99.90
33715;DHT22;20043;50.998;4.754;2023-07-13T08:39:32;21.50;99.90
33715;DHT22;20043;50.998;4.754;2023-07-13T08:42:18;21.60;99.90
33715;DHT22;20043;50.998;4.754;2023-07-13T08:48:03;21.60;99.90
33715;DHT22;20043;50.998;4.754;2023-07-13T08:50:35;21.50;99.90
33715;DHT22;20043;50.998;4.754;2023-07-13T08:53:05;21.60;99.90
33715;DHT22;20043;50.998;4.754;2023-07-13T08:55:34;21.80;99.90
33715;DHT22;20043;50.998;4.754;2023-07-13T08:58:13;21.70;99.90
33715;DHT22;20043;50.998;4.754;2023-07-13T09:00:48;21.40;99.90
33715;DHT22;20043;50.998;4.754;2023-07-13T09:03:24;21.30;99.90
33715;DHT22;20043;50.998;4.754;2023-07-13T09:05:56;21.50;99.90
33715;DHT22;20043;50.998;4.754;2023-07-13T09:08:46;21.40;99.90
33715;DHT22;20043;50.998;4.754;2023-07-13T09:13:54;21.50;99.90
33715;DHT22;20043;50.998;4.754;2023-07-13T09:16:22;21.60;99.90
33715;DHT22;20043;50.998;4.754;2023-07-13T09:18:50;21.70;99.90
33715;DHT22;20043;50.998;4.754;2023-07-13T09:21:27;21.90;99.90
33715;DHT22;20043;50.998;4.754;2023-07-13T09:23:59;22.20;99.90
33715;DHT22;20043;50.998;4.754;2023-07-13T09:26:28;22.50;99.90
33715;DHT22;20043;50.998;4.754;2023-07-13T09:28:59;22.70;99.90
33715;DHT22;20043;50.998;4.754;2023-07-13T09:31:33;22.70;99.90
33715;DHT22;20043;50.998;4.754;2023-07-13T09:34:00;22.50;99.90
33715;DHT22;20043;50.998;4.754;2023-07-13T09:36:31;22.50;99.90
33715;DHT22;20043;50.998;4.754;2023-07-13T09:39:18;22.40;99.90
33715;DHT22;20043;50.998;4.754;2023-07-13T09:47:17;22.40;99.90
33715;DHT22;20043;50.998;4.754;2023-07-13T09:49:43;22.10;99.90
33715;DHT22;20043;50.998;4.754;2023-07-13T09:52:12;22.00;99.90
33715;DHT22;20043;50.998;4.754;2023-07-13T09:54:43;22.10;99.90
33715;DHT22;20043;50.998;4.754;2023-07-13T09:57:17;22.30;99.90
33715;DHT22;20043;50.998;4.754;2023-07-13T09:59:48;22.60;99.90
33715;DHT22;20043;50.998;4.754;2023-07-13T10:02:34;22.70;99.90
33715;DHT22;20043;50.998;4.754;2023-07-13T10:07:26;23.00;99.90
33715;DHT22;20043;50.998;4.754;2023-07-13T10:09:54;23.00;99.90
33715;DHT22;20043;50.998;4.754;2023-07-13T10:12:20;22.80;99.90
33715;DHT22;20043;50.998;4.754;2023-07-13T10:14:46;22.40;99.90
33715;DHT22;20043;50.998;4.754;2023-07-13T10:17:13;22.20;99.90
33715;DHT22;20043;50.998;4.754;2023-07-13T10:19:41;22.10;99.90
33715;DHT22;20043;50.998;4.754;2023-07-13T10:22:27;22.40;99.90
33715;DHT22;20043;50.998;4.754;2023-07-13T10:24:55;22.60;99.90
33715;DHT22;20043;50.998;4.754;2023-07-13T10:27:30;22.90;99.90
33715;DHT22;20043;50.998;4.754;2023-07-13T10:30:02;23.00;99.90
33715;DHT22;20043;50.998;4.754;2023-07-13T10:32:34;23.20;99.90
33715;DHT22;20043;50.998;4.754;2023-07-13T10:34:59;23.20;99.90
33715;DHT22;20043;50.998;4.754;2023-07-13T10:37:36;23.10;99.90
33715;DHT22;20043;50.998;4.754;2023-07-13T10:40:06;23.00;99.90
33715;DHT22;20043;50.998;4.754;2023-07-13T10:42:40;23.00;99.90
33715;DHT22;20043;50.998;4.754;2023-07-13T10:45:19;23.00;99.90
33715;DHT22;20043;50.998;4.754;2023-07-13T10:47:45;23.20;99.90
33715;DHT22;20043;50.998;4.754;2023-07-13T10:50:19;23.30;99.90
33715;DHT22;20043;50.998;4.754;2023-07-13T10:52:51;23.40;99.90
33715;DHT22;20043;50.998;4.754;2023-07-13T10:55:34;23.50;99.90
33715;DHT22;20043;50.998;4.754;2023-07-13T10:58:37;23.40;99.90
33715;DHT22;20043;50.998;4.754;2023-07-13T11:03:34;23.50;99.90
33715;DHT22;20043;50.998;4.754;2023-07-13T11:06:09;23.70;99.90
33715;DHT22;20043;50.998;4.754;2023-07-13T11:08:36;24.00;99.90
33715;DHT22;20043;50.998;4.754;2023-07-13T11:11:03;23.80;99.90
33715;DHT22;20043;50.998;4.754;2023-07-13T11:13:55;23.50;99.90
33715;DHT22;20043;50.998;4.754;2023-07-13T11:21:29;23.40;99.90
33715;DHT22;20043;50.998;4.754;2023-07-13T11:24:17;23.60;99.90
33715;DHT22;20043;50.998;4.754;2023-07-13T11:26:50;23.40;99.90
33715;DHT22;20043;50.998;4.754;2023-07-13T11:32:01;23.10;99.90
33715;DHT22;20043;50.998;4.754;2023-07-13T11:34:31;23.20;99.90
33715;DHT22;20043;50.998;4.754;2023-07-13T11:36:59;23.10;99.90
33715;DHT22;20043;50.998;4.754;2023-07-13T11:42:00;23.20;99.90
33715;DHT22;20043;50.998;4.754;2023-07-13T11:44:29;23.30;99.90
33715;DHT22;20043;50.998;4.754;2023-07-13T11:46:57;23.40;99.90
33715;DHT22;20043;50.998;4.754;2023-07-13T11:49:30;23.40;99.90
33715;DHT22;20043;50.998;4.754;2023-07-13T11:51:56;23.40;99.90
33715;DHT22;20043;50.998;4.754;2023-07-13T11:54:29;23.20;99.90
33715;DHT22;20043;50.998;4.754;2023-07-13T11:57:02;23.10;99.90
33715;DHT22;20043;50.998;4.754;2023-07-13T11:59:32;23.20;99.90
33715;DHT22;20043;50.998;4.754;2023-07-13T12:01:59;23.60;99.90
33715;DHT22;20043;50.998;4.754;2023-07-13T12:04:28;23.80;99.90
33715;DHT22;20043;50.998;4.754;2023-07-13T12:07:04;24.30;99.90
33715;DHT22;20043;50.998;4.754;2023-07-13T12:09:30;24.40;99.90
33715;DHT22;20043;50.998;4.754;2023-07-13T12:11:57;24.50;99.90
33715;DHT22;20043;50.998;4.754;2023-07-13T12:14:25;24.30;99.90
33715;DHT22;20043;50.998;4.754;2023-07-13T12:16:52;24.10;99.90
33715;DHT22;20043;50.998;4.754;2023-07-13T12:19:21;23.90;99.90
33715;DHT22;20043;50.998;4.754;2023-07-13T12:21:47;23.80;99.90
33715;DHT22;20043;50.998;4.754;2023-07-13T12:24:16;23.70;99.90
33715;DHT22;20043;50.998;4.754;2023-07-13T12:33:07;22.70;99.90
33715;DHT22;20043;50.998;4.754;2023-07-13T12:35:46;22.00;99.90
33715;DHT22;20043;50.998;4.754;2023-07-13T12:38:12;21.60;99.90
33715;DHT22;20043;50.998;4.754;2023-07-13T12:40:38;21.20;99.90
33715;DHT22;20043;50.998;4.754;2023-07-13T12:43:10;21.20;99.90
33715;DHT22;20043;50.998;4.754;2023-07-13T12:45:37;21.10;99.90
33715;DHT22;20043;50.998;4.754;2023-07-13T12:48:20;20.80;99.90
33715;DHT22;20043;50.998;4.754;2023-07-13T12:50:49;20.70;99.90
33715;DHT22;20043;50.998;4.754;2023-07-13T12:53:37;20.70;99.90
33715;DHT22;20043;50.998;4.754;2023-07-13T12:56:05;20.70;99.90
33715;DHT22;20043;50.998;4.754;2023-07-13T12:58:41;20.50;99.90
33715;DHT22;20043;50.998;4.754;2023-07-13T13:01:13;20.40;99.90
33715;DHT22;20043;50.998;4.754;2023-07-13T13:03:46;20.50;99.90
33715;DHT22;20043;50.998;4.754;2023-07-13T13:08:50;20.60;99.90
33715;DHT22;20043;50.998;4.754;2023-07-13T13:11:16;20.60;99.90
33715;DHT22;20043;50.998;4.754;2023-07-13T13:13:43;20.70;99.90
33715;DHT22;20043;50.998;4.754;2023-07-13T13:16:32;20.70;99.90
33715;DHT22;20043;50.998;4.754;2023-07-13T13:19:05;20.50;99.90
33715;DHT22;20043;50.998;4.754;2023-07-13T13:21:35;20.70;99.90
33715;DHT22;20043;50.998;4.754;2023-07-13T13:24:01;20.60;99.90
33715;DHT22;20043;50.998;4.754;2023-07-13T13:26:26;20.60;99.90
33715;DHT22;20043;50.998;4.754;2023-07-13T13:28:52;20.60;99.90
33715;DHT22;20043;50.998;4.754;2023-07-13T13:31:18;20.60;99.90
33715;DHT22;20043;50.998;4.754;2023-07-13T13:33:45;20.50;99.90
33715;DHT22;20043;50.998;4.754;2023-07-13T13:36:20;20.50;99.90
33715;DHT22;20043;50.998;4.754;2023-07-13T13:38:47;20.50;99.90
33715;DHT22;20043;50.998;4.754;2023-07-13T13:41:14;20.60;99.90
33715;DHT22;20043;50.998;4.754;2023-07-13T13:43:43;20.70;99.90
33715;DHT22;20043;50.998;4.754;2023-07-13T13:46:17;20.60;99.90
33715;DHT22;20043;50.998;4.754;2023-07-13T13:48:44;20.60;99.90
33715;DHT22;20043;50.998;4.754;2023-07-13T13:51:21;20.50;99.90
33715;DHT22;20043;50.998;4.754;2023-07-13T13:53:48;20.60;99.90
33715;DHT22;20043;50.998;4.754;2023-07-13T13:56:17;20.70;99.90
33715;DHT22;20043;50.998;4.754;2023-07-13T13:58:44;20.90;99.90
33715;DHT22;20043;50.998;4.754;2023-07-13T14:01:28;20.80;99.90
33715;DHT22;20043;50.998;4.754;2023-07-13T14:03:54;20.90;99.90
33715;DHT22;20043;50.998;4.754;2023-07-13T14:06:20;20.90;99.90
33715;DHT22;20043;50.998;4.754;2023-07-13T14:08:46;21.00;99.90
33715;DHT22;20043;50.998;4.754;2023-07-13T14:11:17;21.10;99.90
33715;DHT22;20043;50.998;4.754;2023-07-13T14:13:48;21.10;99.90
33715;DHT22;20043;50.998;4.754;2023-07-13T14:16:20;21.10;99.90
33715;DHT22;20043;50.998;4.754;2023-07-13T14:18:47;21.10;99.90
33715;DHT22;20043;50.998;4.754;2023-07-13T14:21:17;21.10;99.90
33715;DHT22;20043;50.998;4.754;2023-07-13T14:23:45;21.30;99.90
33715;DHT22;20043;50.998;4.754;2023-07-13T14:26:22;21.40;99.90
33715;DHT22;20043;50.998;4.754;2023-07-13T14:28:55;21.50;99.90
33715;DHT22;20043;50.998;4.754;2023-07-13T14:31:22;21.70;99.90
33715;DHT22;20043;50.998;4.754;2023-07-13T14:33:48;22.10;99.90
33715;DHT22;20043;50.998;4.754;2023-07-13T14:38:47;22.60;99.90
33715;DHT22;20043;50.998;4.754;2023-07-13T14:41:27;22.90;99.90
33715;DHT22;20043;50.998;4.754;2023-07-13T14:43:53;23.20;99.90
33715;DHT22;20043;50.998;4.754;2023-07-13T14:46:30;23.40;99.90
33715;DHT22;20043;50.998;4.754;2023-07-13T14:51:47;23.60;99.90
33715;DHT22;20043;50.998;4.754;2023-07-13T14:54:13;23.80;99.90
33715;DHT22;20043;50.998;4.754;2023-07-13T14:56:39;24.00;99.90
33715;DHT22;20043;50.998;4.754;2023-07-13T14:59:05;24.10;99.90
33715;DHT22;20043;50.998;4.754;2023-07-13T15:01:36;24.10;99.90
33715;DHT22;20043;50.998;4.754;2023-07-13T15:04:05;24.10;99.90
33715;DHT22;20043;50.998;4.754;2023-07-13T15:07:00;23.80;99.90
33715;DHT22;20043;50.998;4.754;2023-07-13T15:09:28;23.70;99.90
33715;DHT22;20043;50.998;4.754;2023-07-13T15:11:57;23.70;99.90
33715;DHT22;20043;50.998;4.754;2023-07-13T15:14:23;23.70;99.90
33715;DHT22;20043;50.998;4.754;2023-07-13T15:16:53;23.70;99.90
33715;DHT22;20043;50.998;4.754;2023-07-13T15:19:20;23.90;99.90
33715;DHT22;20043;50.998;4.754;2023-07-13T15:21:46;24.00;99.90
33715;DHT22;20043;50.998;4.754;2023-07-13T15:24:13;23.90;99.90
33715;DHT22;20043;50.998;4.754;2023-07-13T15:26:39;23.80;99.90
33715;DHT22;20043;50.998;4.754;2023-07-13T15:29:05;23.80;99.90
33715;DHT22;20043;50.998;4.754;2023-07-13T15:31:32;23.90;99.90
33715;DHT22;20043;50.998;4.754;2023-07-13T15:33:59;23.80;99.90
33715;DHT22;20043;50.998;4.754;2023-07-13T15:36:25;23.70;99.90
33715;DHT22;20043;50.998;4.754;2023-07-13T15:38:53;23.80;99.90
33715;DHT22;20043;50.998;4.754;2023-07-13T15:41:19;23.80;99.90
33715;DHT22;20043;50.998;4.754;2023-07-13T15:43:47;23.90;99.90
33715;DHT22;20043;50.998;4.754;2023-07-13T15:46:13;24.00;99.90
33715;DHT22;20043;50.998;4.754;2023-07-13T15:48:39;24.10;99.90
33715;DHT22;20043;50.998;4.754;2023-07-13T15:51:08;24.20;99.90
33715;DHT22;20043;50.998;4.754;2023-07-13T15:53:38;24.30;99.90
33715;DHT22;20043;50.998;4.754;2023-07-13T15:56:20;24.20;99.90
33715;DHT22;20043;50.998;4.754;2023-07-13T15:58:48;24.20;99.90
33715;DHT22;20043;50.998;4.754;2023-07-13T16:01:15;24.10;99.90
33715;DHT22;20043;50.998;4.754;2023-07-13T16:03:41;24.00;99.90
33715;DHT22;20043;50.998;4.754;2023-07-13T16:08:43;24.20;99.90
33715;DHT22;20043;50.998;4.754;2023-07-13T16:11:16;24.20;99.90
33715;DHT22;20043;50.998;4.754;2023-07-13T16:13:44;24.00;99.90
33715;DHT22;20043;50.998;4.754;2023-07-13T16:16:11;24.00;99.90
33715;DHT22;20043;50.998;4.754;2023-07-13T16:18:37;24.10;99.90
33715;DHT22;20043;50.998;4.754;2023-07-13T16:21:09;24.10;99.90
33715;DHT22;20043;50.998;4.754;2023-07-13T16:23:36;24.10;99.90
33715;DHT22;20043;50.998;4.754;2023-07-13T16:26:03;24.10;99.90